createdAt,value
2022-08-21T00:03:44.248Z,67.12
2022-08-21T00:08:50.078Z,67.48
2022-08-21T00:13:56.639Z,67.70
2022-08-21T00:19:02.045Z,68.02
2022-08-21T00:24:08.278Z,68.64
2022-08-21T00:29:14.469Z,69.30
2022-08-21T00:34:20.168Z,69.43
2022-08-21T00:39:25.854Z,69.99
2022-08-21T00:44:32.059Z,70.23
2022-08-21T00:49:38.402Z,71.06
2022-08-21T00:54:46.310Z,71.52
2022-08-21T00:59:59.353Z,72.36
2022-08-21T01:05:06.035Z,72.54
2022-08-21T01:10:20.579Z,72.81
2022-08-21T01:15:37.643Z,73.34
2022-08-21T01:20:46.743Z,73.83
2022-08-21T01:25:52.336Z,74.14
2022-08-21T01:30:59.336Z,74.44
2022-08-21T01:36:05.656Z,75.47
2022-08-21T01:41:11.716Z,75.95
2022-08-21T01:46:18.635Z,76.11
2022-08-21T01:51:23.983Z,76.69
2022-08-21T01:56:29.792Z,76.78
2022-08-21T02:01:35.513Z,76.86
2022-08-21T02:06:41.357Z,77.04
2022-08-21T02:11:47.040Z,77.57
2022-08-21T02:16:52.573Z,77.78
2022-08-21T02:22:12.134Z,78.31
2022-08-21T02:27:17.562Z,78.66
2022-08-21T02:32:30.310Z,78.87
2022-08-21T02:37:43.064Z,79.33
2022-08-21T02:42:48.873Z,79.89
2022-08-21T02:47:57.460Z,80.26
2022-08-21T02:53:04.020Z,80.79
2022-08-21T02:58:09.824Z,81.15
2022-08-21T03:03:15.568Z,81.33
2022-08-21T03:08:21.372Z,81.50
2022-08-21T03:13:30.172Z,82.01
2022-08-21T03:18:36.761Z,82.18
2022-08-21T03:23:44.110Z,82.48
2022-08-21T03:28:49.899Z,82.66
2022-08-21T03:33:56.369Z,83.04
2022-08-21T03:39:01.785Z,83.24
2022-08-21T03:44:07.118Z,83.54
2022-08-21T03:49:13.282Z,83.40
2022-08-21T03:54:19.176Z,83.15
2022-08-21T03:59:25.188Z,83.05
2022-08-21T04:04:31.311Z,82.84
2022-08-21T04:09:37.156Z,82.45
2022-08-21T04:14:42.887Z,81.93
2022-08-21T04:19:53.659Z,81.60
2022-08-21T04:24:59.447Z,81.02
2022-08-21T04:30:06.850Z,80.13
2022-08-21T04:35:13.761Z,78.21
2022-08-21T04:40:20.957Z,75.83
2022-08-21T04:45:28.020Z,74.33
2022-08-21T04:50:40.356Z,72.12
2022-08-21T04:55:47.257Z,68.90
2022-08-21T05:00:55.266Z,65.70
2022-08-21T05:06:00.995Z,63.13
2022-08-21T05:11:07.428Z,60.76
2022-08-21T05:16:12.999Z,57.89
2022-08-21T05:21:18.571Z,55.27
2022-08-21T05:26:24.173Z,52.37
2022-08-21T05:31:29.797Z,49.22
2022-08-21T05:36:35.323Z,48.20
2022-08-21T05:41:41.223Z,46.17
2022-08-21T05:46:46.769Z,45.08
2022-08-21T05:51:52.278Z,43.22
2022-08-21T05:56:57.951Z,43.07
2022-08-21T06:02:05.857Z,42.36
2022-08-21T06:07:12.385Z,41.40
2022-08-21T06:12:18.155Z,40.57
2022-08-21T06:17:24.596Z,39.68
2022-08-21T06:22:30.317Z,37.98
2022-08-21T06:27:35.859Z,37.38
2022-08-21T06:32:41.436Z,36.34
2022-08-21T06:37:46.779Z,35.14
2022-08-21T06:42:52.281Z,34.15
2022-08-21T06:47:57.795Z,34.32
2022-08-21T06:53:11.828Z,32.68
2022-08-21T06:58:18.120Z,31.85
2022-08-21T07:03:28.122Z,31.76
2022-08-21T07:08:33.681Z,31.03
2022-08-21T07:13:39.055Z,31.05
2022-08-21T07:18:44.929Z,30.35
2022-08-21T07:23:52.431Z,29.66
2022-08-21T07:28:58.237Z,29.23
2022-08-21T07:34:03.910Z,29.00
2022-08-21T07:39:09.338Z,28.80
2022-08-21T07:44:14.820Z,28.10
2022-08-21T07:49:20.131Z,28.36
2022-08-21T07:54:33.525Z,27.79
2022-08-21T07:59:40.086Z,26.46
2022-08-21T08:04:51.087Z,26.09
2022-08-21T08:09:57.608Z,25.45
2022-08-21T08:15:23.299Z,25.69
2022-08-21T08:20:30.031Z,25.75
2022-08-21T08:25:36.900Z,25.37
2022-08-21T08:30:43.482Z,25.57
2022-08-21T08:35:52.102Z,26.18
2022-08-21T08:41:12.953Z,26.87
2022-08-21T08:46:24.054Z,26.81
2022-08-21T08:51:40.979Z,28.00
2022-08-21T08:56:47.715Z,30.30
2022-08-21T09:01:53.255Z,31.79
2022-08-21T09:07:13.697Z,33.76
2022-08-21T09:12:26.991Z,35.20
2022-08-21T09:17:56.127Z,36.39
2022-08-21T09:23:11.296Z,33.79
2022-08-21T09:28:16.961Z,32.42
2022-08-21T09:33:22.486Z,30.03
2022-08-21T09:38:32.797Z,28.52
2022-08-21T09:43:39.970Z,28.48
2022-08-21T09:48:48.908Z,28.85
2022-08-21T09:53:59.285Z,28.02
2022-08-21T09:59:16.311Z,27.87
2022-08-21T10:04:29.496Z,28.90
2022-08-21T10:09:35.116Z,30.60
2022-08-21T10:14:51.840Z,32.30
2022-08-21T10:20:07.920Z,33.80
2022-08-21T10:25:20.735Z,34.04
2022-08-21T10:30:37.342Z,34.19
2022-08-21T10:35:51.013Z,34.63
2022-08-21T10:41:07.218Z,34.40
2022-08-21T10:46:21.038Z,34.43
2022-08-21T10:51:36.762Z,34.81
2022-08-21T10:56:44.197Z,35.65
2022-08-21T11:01:57.107Z,36.09
2022-08-21T11:07:17.253Z,37.02
2022-08-21T11:12:28.898Z,37.58
2022-08-21T11:17:38.052Z,38.31
2022-08-21T11:22:59.989Z,38.50
2022-08-21T11:28:16.466Z,38.59
2022-08-21T11:33:35.989Z,39.84
2022-08-21T11:38:43.525Z,40.60
2022-08-21T11:43:54.845Z,41.30
2022-08-21T11:49:17.725Z,39.82
2022-08-21T11:54:30.819Z,39.23
2022-08-21T11:59:43.896Z,37.81
2022-08-21T12:04:53.249Z,36.99
2022-08-21T12:10:00.159Z,36.53
2022-08-21T12:15:29.805Z,36.44
2022-08-21T12:20:58.666Z,35.16
2022-08-21T12:26:19.463Z,36.47
2022-08-21T12:31:27.418Z,37.70
2022-08-21T12:36:46.420Z,38.89
2022-08-21T12:42:01.659Z,39.10
2022-08-21T12:47:14.987Z,39.92
2022-08-21T12:52:24.265Z,39.42
2022-08-21T12:57:31.315Z,40.26
2022-08-21T13:02:43.689Z,40.77
2022-08-21T13:07:50.139Z,40.17
2022-08-21T13:12:59.513Z,40.00
2022-08-21T13:18:07.729Z,40.15
2022-08-21T13:23:24.931Z,40.74
2022-08-21T13:28:38.725Z,41.45
2022-08-21T13:33:45.000Z,42.30
2022-08-21T13:38:53.925Z,42.48
2022-08-21T13:44:02.259Z,42.35
2022-08-21T13:49:09.691Z,41.83
2022-08-21T13:54:25.791Z,40.54
2022-08-21T13:59:33.484Z,40.80
2022-08-21T14:04:53.264Z,40.24
2022-08-21T14:10:03.556Z,39.50
2022-08-21T14:15:14.322Z,39.55
2022-08-21T14:20:34.422Z,39.54
2022-08-21T14:25:44.730Z,39.55
2022-08-21T14:30:51.537Z,39.31
2022-08-21T14:36:01.856Z,39.82
2022-08-21T14:41:16.756Z,40.08
2022-08-21T14:46:25.806Z,40.55
2022-08-21T14:51:31.290Z,41.13
2022-08-21T14:56:37.524Z,41.33
2022-08-21T15:01:43.388Z,41.48
2022-08-21T15:06:49.013Z,41.77
2022-08-21T15:11:57.405Z,41.97
2022-08-21T15:17:04.690Z,42.45
2022-08-21T15:22:15.442Z,43.20
2022-08-21T15:27:24.758Z,43.89
2022-08-21T15:32:31.725Z,44.49
2022-08-21T15:37:37.607Z,45.25
2022-08-21T15:42:43.915Z,45.96
2022-08-21T15:47:51.513Z,46.79
2022-08-21T15:52:57.107Z,47.32
2022-08-21T15:58:06.057Z,47.89
2022-08-21T16:03:17.490Z,48.07
2022-08-21T16:08:23.165Z,48.65
2022-08-21T16:13:34.630Z,49.02
2022-08-21T16:18:40.764Z,49.57
2022-08-21T16:23:46.592Z,50.28
2022-08-21T16:28:57.137Z,50.87
2022-08-21T16:34:01.657Z,51.62
2022-08-21T16:39:07.334Z,52.08
2022-08-21T16:44:12.871Z,52.09
2022-08-21T16:49:18.342Z,52.15
2022-08-21T16:54:24.148Z,52.64
2022-08-21T16:59:29.666Z,53.08
2022-08-21T17:04:35.167Z,53.67
2022-08-21T17:09:40.587Z,53.71
2022-08-21T17:14:46.743Z,54.39
2022-08-21T17:19:52.308Z,54.55
2022-08-21T17:24:58.174Z,55.67
2022-08-21T17:30:05.898Z,56.50
2022-08-21T17:35:12.869Z,56.60
2022-08-21T17:40:20.316Z,57.59
2022-08-21T17:45:26.159Z,58.20
2022-08-21T17:50:31.728Z,59.12
2022-08-21T17:55:41.607Z,60.48
2022-08-21T18:00:52.693Z,61.40
2022-08-21T18:06:03.220Z,62.61
2022-08-21T18:11:09.055Z,63.35
2022-08-21T18:16:19.655Z,64.45
2022-08-21T18:21:25.614Z,65.40
2022-08-21T18:26:34.930Z,65.99
2022-08-21T18:31:43.641Z,66.37
2022-08-21T18:36:49.432Z,67.27
2022-08-21T18:41:56.011Z,68.24
2022-08-21T18:47:04.771Z,69.10
2022-08-21T18:52:10.414Z,69.77
2022-08-21T18:57:29.315Z,70.24
2022-08-21T19:02:34.852Z,70.73
2022-08-21T19:07:40.732Z,71.26
2022-08-21T19:12:47.477Z,71.59
2022-08-21T19:17:54.496Z,72.07
2022-08-21T19:23:01.055Z,72.78
2022-08-21T19:28:11.186Z,73.22
2022-08-21T19:33:23.644Z,73.57
2022-08-21T19:38:30.007Z,73.81
2022-08-21T19:43:42.620Z,74.07
2022-08-21T19:48:46.926Z,74.80
2022-08-21T19:53:57.537Z,75.23
2022-08-21T19:59:07.550Z,75.71
2022-08-21T20:04:19.573Z,76.24
2022-08-21T20:09:25.367Z,76.52
2022-08-21T20:14:32.955Z,76.96
2022-08-21T20:19:41.284Z,77.10
2022-08-21T20:24:46.826Z,77.59
2022-08-21T20:29:52.906Z,77.83
2022-08-21T20:34:59.082Z,77.92
2022-08-21T20:40:10.271Z,78.13
2022-08-21T20:45:20.498Z,78.42
2022-08-21T20:50:28.855Z,78.98
2022-08-21T20:55:37.397Z,79.13
2022-08-21T21:00:44.512Z,79.39
2022-08-21T21:05:57.543Z,79.76
2022-08-21T21:11:07.343Z,80.02
2022-08-21T21:16:17.710Z,80.77
2022-08-21T21:21:33.124Z,81.09
2022-08-21T21:26:48.830Z,81.53
2022-08-21T21:31:55.800Z,81.86
2022-08-21T21:37:06.898Z,82.13
2022-08-21T21:42:29.818Z,82.49
2022-08-21T21:47:47.512Z,82.81
2022-08-21T21:53:12.795Z,82.87
2022-08-21T21:58:43.912Z,83.10
2022-08-21T22:03:59.298Z,83.18
2022-08-21T22:09:18.134Z,83.35
2022-08-21T22:14:29.863Z,83.63
2022-08-21T22:19:41.182Z,83.92
2022-08-21T22:24:49.689Z,83.88
2022-08-21T22:29:58.376Z,83.96
2022-08-21T22:35:16.095Z,83.73
2022-08-21T22:40:26.514Z,83.74
2022-08-21T22:45:37.939Z,83.93
2022-08-21T22:50:54.101Z,84.12
2022-08-21T22:56:02.153Z,84.66
2022-08-21T23:01:16.867Z,84.81
2022-08-21T23:06:29.586Z,84.91
2022-08-21T23:11:40.623Z,85.33
2022-08-21T23:16:56.011Z,85.71
2022-08-21T23:22:17.322Z,85.65
2022-08-21T23:27:32.589Z,85.71
2022-08-21T23:33:07.411Z,85.61
2022-08-21T23:38:23.007Z,85.83
2022-08-21T23:43:44.414Z,86.11
2022-08-21T23:55:34.403Z,85.95
